Scottsburg, IN

7:58 AM EDT on August 31, 2014 (GMT -0400)
Godman Army Air Field | Change Station
CLOSE
Current Station
Airport
Location: Fort Knox,
Elevation: 755 ft
Nearby Weather Stations

Elev 755 ft 37.91 °N, 85.97 °W | Updated 32 minutes ago

Mostly Cloudy
Mostly Cloudy
72 °F
Feels Like 72 °F
N
9
Wind Variable Wind from South

Today
High -- | Low -- °F
--% Chance of Precip.
Yesterday
High -- | Low -- °F
Precip. -- in
7:11 AM 8:14 PM
Waxing Crescent, 30% visible
Pressure 30.05 in
Visibility 10.0 miles
Clouds Scattered Clouds 6000 ft
Scattered Clouds 10000 ft
Mostly Cloudy 13000 ft
Dew Point 72 °F
Humidity 100%
Rainfall 0.06 in
Snow Depth Not available.
UV 0 out of 12
Pollen 1.30 out of 12
Ozone Good
PM2.5 Good
Flu Activity Not available.
SPECI KFTK 311126Z AUTO 18008KT 10SM SCT060 SCT100 BKN130 22/22 A3005 RMK AO2

More Conditions Fewer Conditions

Pressure 30.05 in
Visibility 10.0 miles
Clouds Scattered Clouds 6000 ft
Scattered Clouds 10000 ft
Mostly Cloudy 13000 ft
Dew Point 72 °F
Humidity 100%
Rainfall 0.06 in
Snow Depth Not available.
UV 0 out of 12
Pollen 1.30 out of 12
Ozone Good
PM2.5 Good
Flu Activity Not available.
SPECI KFTK 311126Z AUTO 18008KT 10SM SCT060 SCT100 BKN130 22/22 A3005 RMK AO2

More Conditions Fewer Conditions

10-Day Weather Forecast

Almanac

Astronomy

Aug. 31, 2014 Rise Set
Actual Time 7:11 AM EDT 8:14 PM EDT
Civil Twilight 6:44 AM EDT 8:41 PM EDT
Nautical Twilight 6:11 AM EDT 9:14 PM EDT
Astronomical Twilight 5:37 AM EDT 9:47 PM EDT
Moon 12:53 PM EDT 11:33 PM EDT
Length of Visible Light 13h 57m
Length of Day
13h 03m
Tomorrow will be 2m 24s shorter.
Waxing Crescent, 30% of the Moon is Illuminated
Today
Waxing Crescent
Sep 2
First Quarter
Sep 8
Full
Sep 15
Last Quarter
Sep 24
New

Today's Extremes

State Highs State Lows

Community

WunderPhotos

Upload Photos

1,748,848 photos uploaded!

Nearby

Air Quality

  Air Quality AQ Index Pollutant
Yesterday Good
PM10
Yesterday Good
OZONE
Current Good
PM2.5
Current Good
OZONE
Sunday Moderate
PM2.5
Sunday Good
OZONE
Monday Moderate
PM2.5
Monday Good
OZONE
Tuesday Moderate
PM2.5
Tuesday Good
OZONE

Snow Depth

Station Depth Elevation
No new snow has been reported.

Earthquake Activity

City Distance Mag. Time & Date
No recent earthquake activity has been reported nearby.
Minimum magnitude displayed is 2.5.

Coastal Water Temperatures

Place Temperature
No Stations Reporting

Nearby Weather Stations